Time;durP1;ratioP1;P1;durP2;ratioP2;P2;SDS_P1;SDS_P2;PMS_P1;PMS_P2;Temp;Humidity;BMP_temperature;BMP_pressure;BME280_temperature;BME280_humidity;BME280_pressure;Samples;Min_cycle;Max_cycle;Signal;HPM_P1;HPM_P2
2021/07/22 00:01:53;;;;;;;3.40;2.40;;;;;;;18.11;61.32;99165.57;129954;1090;114696;-61
2021/07/22 00:04:23;;;;;;;11.78;3.78;;;;;;;18.06;61.47;99162.94;130032;1090;22585;-61
2021/07/22 00:07:03;;;;;;;3.70;2.65;;;;;;;18.03;61.78;99169.92;129997;1090;114328;-61
2021/07/22 00:09:33;;;;;;;7.73;2.98;;;;;;;17.98;61.72;99173.61;130415;1090;23077;-62
2021/07/22 00:12:02;;;;;;;5.08;2.70;;;;;;;17.94;62.03;99169.85;130419;1085;114380;-60
2021/07/22 00:14:32;;;;;;;6.33;3.30;;;;;;;17.92;62.29;99174.05;130476;1088;22600;-61
2021/07/22 00:17:04;;;;;;;7.85;3.10;;;;;;;17.88;62.36;99171.13;130454;1086;22675;-61
2021/07/22 00:19:34;;;;;;;5.78;2.88;;;;;;;17.84;62.70;99174.81;130390;1086;113860;-61
2021/07/22 00:22:03;;;;;;;4.25;2.88;;;;;;;17.80;62.67;99177.38;130537;1087;22682;-60
2021/07/22 00:24:34;;;;;;;4.75;2.65;;;;;;;17.75;62.90;99171.98;130411;1086;113669;-61
2021/07/22 00:27:03;;;;;;;4.58;2.58;;;;;;;17.71;63.34;99179.27;130470;1087;22563;-61
2021/07/22 00:29:35;;;;;;;3.70;2.73;;;;;;;17.66;63.37;99174.69;130491;1088;22996;-60
2021/07/22 00:32:05;;;;;;;7.25;3.20;;;;;;;17.63;63.43;99177.22;130359;1086;113811;-61
2021/07/22 00:34:33;;;;;;;7.80;2.95;;;;;;;17.59;63.72;99179.81;130434;1087;23438;-61
2021/07/22 00:37:03;;;;;;;3.68;2.50;;;;;;;17.57;63.86;99167.47;130375;1087;114110;-61
2021/07/22 00:39:40;;;;;;;6.13;2.75;;;;;;;17.54;64.07;99184.61;130472;1087;22633;-60
2021/07/22 00:42:10;;;;;;;5.35;2.85;;;;;;;17.51;64.16;99183.29;130396;1087;113808;-61
2021/07/22 00:44:39;;;;;;;6.35;2.90;;;;;;;17.50;64.40;99184.41;130483;1086;22547;-60
2021/07/22 00:47:08;;;;;;;4.75;2.78;;;;;;;17.49;64.54;99190.23;130522;1086;23363;-61
2021/07/22 00:49:38;;;;;;;5.53;3.25;;;;;;;17.47;64.70;99184.22;130353;1085;113833;-61
2021/07/22 00:52:07;;;;;;;4.28;2.63;;;;;;;17.46;65.06;99190.84;130471;1087;22526;-61
2021/07/22 00:54:37;;;;;;;4.13;2.68;;;;;;;17.44;65.17;99184.86;130395;1087;113625;-60
2021/07/22 00:57:06;;;;;;;6.08;3.00;;;;;;;17.43;65.34;99186.80;130466;1087;22603;-61
2021/07/22 00:59:35;;;;;;;5.85;3.23;;;;;;;17.43;65.52;99180.48;130496;1087;22580;-61
2021/07/22 01:02:04;;;;;;;6.10;3.40;;;;;;;17.41;65.64;99189.05;130382;1087;114046;-60
2021/07/22 01:04:35;;;;;;;6.58;2.78;;;;;;;17.39;65.81;99201.50;130526;1087;22535;-60
2021/07/22 01:07:04;;;;;;;6.00;3.53;;;;;;;17.35;65.82;99186.70;130346;1087;114466;-60
2021/07/22 01:09:37;;;;;;;7.08;2.70;;;;;;;17.32;66.10;99193.64;130399;1087;22581;-60
2021/07/22 01:12:06;;;;;;;6.15;3.03;;;;;;;17.29;66.31;99192.35;130331;1087;114428;-62
2021/07/22 01:14:36;;;;;;;6.23;3.30;;;;;;;17.29;66.34;99191.54;130517;1085;23131;-60
2021/07/22 01:17:09;;;;;;;5.55;2.88;;;;;;;17.25;66.43;99199.59;130475;1087;23444;-60
2021/07/22 01:19:38;;;;;;;6.10;3.03;;;;;;;17.23;66.51;99201.84;130344;1087;113761;-60
2021/07/22 01:22:07;;;;;;;6.08;2.60;;;;;;;17.21;66.57;99198.58;130485;1087;22540;-61
2021/07/22 01:24:36;;;;;;;5.28;3.45;;;;;;;17.19;66.59;99208.27;130414;1087;113808;-60
2021/07/22 01:27:08;;;;;;;6.03;3.00;;;;;;;17.13;66.67;99209.52;130468;1087;22548;-60
2021/07/22 01:29:46;;;;;;;6.90;3.28;;;;;;;17.09;66.75;99214.81;130346;1087;114367;-60
2021/07/22 01:32:15;;;;;;;4.13;3.05;;;;;;;17.07;66.81;99211.55;130504;1087;22509;-60
2021/07/22 01:34:44;;;;;;;7.23;2.88;;;;;;;17.05;67.02;99210.23;130498;1087;22531;-61
2021/07/22 01:37:16;;;;;;;10.95;3.10;;;;;;;17.01;67.01;99218.31;130329;1087;114878;-61
2021/07/22 01:39:47;;;;;;;5.68;2.90;;;;;;;16.99;67.13;99211.48;130495;1085;22569;-61
2021/07/22 01:42:18;;;;;;;10.35;3.80;;;;;;;16.95;67.16;99212.08;130413;1086;113866;-61
2021/07/22 01:44:48;;;;;;;5.83;3.10;;;;;;;16.92;67.16;99212.69;130494;1087;22652;-61
2021/07/22 01:47:18;;;;;;;9.75;4.33;;;;;;;16.88;67.21;99213.63;130510;1086;22642;-60
2021/07/22 01:49:48;;;;;;;6.40;3.60;;;;;;;16.85;67.25;99212.30;130415;1087;114028;-60
2021/07/22 01:52:17;;;;;;;5.70;3.45;;;;;;;16.83;67.26;99210.98;130484;1087;23351;-61
2021/07/22 01:54:49;;;;;;;6.33;3.88;;;;;;;16.78;67.20;99214.64;130395;1087;113851;-61
2021/07/22 01:57:21;;;;;;;4.63;3.20;;;;;;;16.74;67.32;99221.86;130481;1087;22617;-60
2021/07/22 02:00:05;;;;;;;9.28;3.75;;;;;;;16.70;67.26;99220.05;130346;1087;113821;-61
2021/07/22 02:02:45;;;;;;;6.98;4.13;;;;;;;16.68;67.45;99227.79;130487;1087;22620;-61
2021/07/22 02:05:19;;;;;;;4.60;3.60;;;;;;;16.64;67.57;99227.58;130486;1087;23745;-62
2021/07/22 02:07:49;;;;;;;4.73;3.45;;;;;;;16.61;67.70;99231.72;130377;1087;114282;-62
2021/07/22 02:10:31;;;;;;;5.83;3.38;;;;;;;16.58;67.85;99237.03;130477;1087;22683;-60
2021/07/22 02:13:00;;;;;;;6.68;3.63;;;;;;;16.55;67.91;99234.88;130384;1087;114014;-60
2021/07/22 02:15:42;;;;;;;7.53;3.80;;;;;;;16.52;67.96;99224.48;130452;1088;22570;-61
2021/07/22 02:18:11;;;;;;;5.45;3.28;;;;;;;16.50;68.02;99230.28;130391;1087;114624;-61
2021/07/22 02:20:41;;;;;;;8.48;3.68;;;;;;;16.49;68.09;99227.84;130483;1087;22543;-61
2021/07/22 02:23:11;;;;;;;10.00;3.38;;;;;;;16.47;68.18;99227.32;130526;1086;23124;-61
2021/07/22 02:26:12;;;;;;;7.88;3.10;;;;;;;16.43;68.38;99231.82;130188;1087;113673;-61
2021/07/22 02:28:41;;;;;;;4.68;2.95;;;;;;;16.40;68.46;99229.67;130472;1087;23683;-61
2021/07/22 02:31:10;;;;;;;8.45;3.25;;;;;;;16.37;68.47;99227.52;130412;1087;113964;-63
2021/07/22 02:33:39;;;;;;;7.85;4.35;;;;;;;16.34;68.38;99239.94;130474;1087;22548;-61
2021/07/22 02:36:10;;;;;;;7.23;3.35;;;;;;;16.31;68.24;99240.53;130352;1087;114008;-62
2021/07/22 02:38:56;;;;;;;7.78;3.93;;;;;;;16.33;68.18;99242.98;130472;1087;22573;-62
2021/07/22 02:41:26;;;;;;;5.88;3.08;;;;;;;16.31;68.18;99235.03;130447;1087;22530;-62
2021/07/22 02:43:56;;;;;;;7.33;3.18;;;;;;;16.31;68.10;99250.71;130355;1087;113725;-62
2021/07/22 02:46:26;;;;;;;6.80;3.25;;;;;;;16.27;68.07;99242.28;130461;1087;22529;-61
2021/07/22 02:49:00;;;;;;;5.18;3.15;;;;;;;16.25;67.94;99256.32;130351;1087;113608;-62
2021/07/22 02:51:33;;;;;;;5.48;2.70;;;;;;;16.25;67.84;99261.00;130493;1086;22600;-62
2021/07/22 02:54:06;;;;;;;9.05;3.68;;;;;;;16.21;67.74;99258.03;130369;1087;113973;-62
2021/07/22 02:56:35;;;;;;;7.70;3.20;;;;;;;16.19;67.78;99262.20;130463;1087;22534;-62
2021/07/22 02:59:06;;;;;;;5.18;3.58;;;;;;;16.16;67.90;99263.61;130503;1087;22583;-61
2021/07/22 03:01:38;;;;;;;9.55;3.15;;;;;;;16.16;67.97;99262.80;130343;1085;114311;-61
2021/07/22 03:04:09;;;;;;;4.70;3.05;;;;;;;16.14;68.06;99268.62;130456;1087;22569;-61
2021/07/22 03:07:02;;;;;;;5.70;3.43;;;;;;;16.13;67.89;99277.16;130348;1086;114273;-61
2021/07/22 03:09:31;;;;;;;7.68;3.10;;;;;;;16.13;68.00;99274.41;130461;1087;23364;-60
2021/07/22 03:12:01;;;;;;;7.15;3.50;;;;;;;16.13;67.98;99268.91;130429;1086;114239;-61
2021/07/22 03:14:35;;;;;;;4.30;2.78;;;;;;;16.13;68.06;99266.98;130487;1087;22576;-61
2021/07/22 03:17:05;;;;;;;6.58;3.40;;;;;;;16.14;67.86;99276.05;130453;1087;22565;-61
2021/07/22 03:19:42;;;;;;;9.70;3.63;;;;;;;16.17;67.84;99283.67;130402;1087;114058;-61
2021/07/22 03:22:14;;;;;;;6.38;3.28;;;;;;;16.19;67.76;99284.19;130530;1087;22547;-60
2021/07/22 03:25:15;;;;;;;8.38;3.33;;;;;;;16.22;67.64;99286.34;130299;1090;113768;-60
2021/07/22 03:27:50;;;;;;;8.75;2.78;;;;;;;16.23;67.37;99287.97;129832;1087;64756;-90
2021/07/22 03:30:35;;;;;;;6.45;2.93;;;;;;;16.25;66.86;99291.24;128879;1090;114020;-90
2021/07/22 03:33:23;;;;;;;;;;;;;;;16.26;66.88;99290.95;129109;1089;24058;-89
2021/07/22 03:35:55;;;;;;;5.50;3.10;;;;;;;16.28;66.79;99290.65;129025;1090;99163;-90
2021/07/22 03:38:27;;;;;;;4.95;2.43;;;;;;;16.29;66.78;99292.28;129070;1090;22842;-89
2021/07/22 03:41:15;;;;;;;;;;;;;;;16.30;66.81;99288.42;129173;1090;24023;-92
2021/07/22 03:43:45;;;;;;;6.38;2.98;;;;;;;16.31;66.46;99291.95;128852;1090;100382;-90
2021/07/22 03:46:18;;;;;;;6.85;3.10;;;;;;;16.33;66.51;99292.47;128970;1090;22816;-89
2021/07/22 03:48:48;;;;;;;5.60;2.98;;;;;;;16.36;66.33;99300.13;128844;1090;113851;-90
2021/07/22 03:51:19;;;;;;;7.90;3.43;;;;;;;16.39;66.02;99300.34;129186;1089;22658;-90
2021/07/22 03:53:49;;;;;;;7.73;3.10;;;;;;;16.41;66.00;99300.05;129679;1090;114653;-88
2021/07/22 03:56:19;;;;;;;6.38;2.90;;;;;;;16.43;66.00;99295.06;129531;1090;23822;-90
2021/07/22 03:59:00;;;;;;;7.18;3.23;;;;;;;16.45;65.94;99301.88;129255;1090;24287;-88
2021/07/22 04:01:41;;;;;;;6.08;2.78;;;;;;;16.48;65.86;99304.02;129135;1089;113628;-89
2021/07/22 04:04:20;;;;;;;9.15;2.68;;;;;;;16.51;65.49;99303.42;129335;1090;22849;-89
2021/07/22 04:07:04;;;;;;;5.85;3.18;;;;;;;16.55;65.42;99306.40;129295;1090;113706;-88
2021/07/22 04:09:53;;;;;;;4.03;2.45;;;;;;;16.57;65.31;99307.73;128901;1088;24314;-90
2021/07/22 04:12:40;;;;;;;6.63;2.55;;;;;;;16.61;65.27;99316.98;128632;1090;113629;-89
2021/07/22 04:15:29;;;;;;;7.65;3.23;;;;;;;16.68;65.48;99313.89;128806;1090;22794;-91
2021/07/22 04:18:18;;;;;;;5.27;2.77;;;;;;;16.75;65.50;99314.29;128528;1090;113967;-90
2021/07/22 04:21:14;;;;;;;8.20;3.15;;;;;;;16.73;64.99;99300.05;128747;1090;22807;-88
2021/07/22 04:24:04;;;;;;;8.10;2.43;;;;;;;16.83;65.06;99310.85;128666;1089;113988;-89
2021/07/22 04:26:58;;;;;;;7.03;2.50;;;;;;;16.89;64.54;99317.88;128673;1089;22947;-88
2021/07/22 04:29:44;;;;;;;13.40;2.90;;;;;;;16.93;64.45;99309.83;128663;1089;22820;-88
2021/07/22 04:32:13;;;;;;;4.75;3.23;;;;;;;16.94;64.30;99316.97;128946;1090;112536;-91
2021/07/22 04:34:50;;;;;;;9.95;3.13;;;;;;;16.97;64.33;99316.37;129059;1089;22848;-90
2021/07/22 04:37:35;;;;;;;8.48;2.80;;;;;;;16.99;64.54;99316.88;128720;1090;113834;-89
2021/07/22 04:40:31;;;;;;;3.63;2.35;;;;;;;17.00;64.39;99321.27;128780;1090;24074;-89
2021/07/22 04:43:33;;;;;;;3.75;2.50;;;;;;;17.01;64.34;99322.91;128771;1088;112586;-89
2021/07/22 04:46:22;;;;;;;5.63;3.05;;;;;;;17.01;64.74;99317.39;128835;1090;25727;-90
2021/07/22 04:49:19;;;;;;;5.43;2.68;;;;;;;17.06;65.23;99313.70;128711;1090;114008;-90
2021/07/22 04:52:20;;;;;;;7.43;3.53;;;;;;;17.15;64.60;99320.97;128637;1090;22752;-92
2021/07/22 04:55:19;;;;;;;9.35;2.98;;;;;;;17.23;64.77;99316.66;128493;1090;112609;-88
2021/07/22 04:57:56;;;;;;;6.03;2.60;;;;;;;17.29;64.48;99318.20;128384;1090;26396;-88
2021/07/22 05:00:25;;;;;;;;;;;;;;;17.35;64.29;99313.39;128578;1089;112753;-89
2021/07/22 05:02:58;;;;;;;4.78;2.40;;;;;;;17.42;64.40;99316.56;129005;1089;21505;-89
2021/07/22 05:05:38;;;;;;;8.80;2.40;;;;;;;17.50;63.85;99319.39;128900;1090;22802;-86
2021/07/22 05:08:31;;;;;;;10.40;3.75;;;;;;;17.57;63.99;99324.50;128714;1089;113744;-85
2021/07/22 05:11:23;;;;;;;4.98;2.58;;;;;;;17.63;63.58;99312.22;129483;1090;22965;-86
2021/07/22 05:14:00;;;;;;;6.73;2.65;;;;;;;17.75;63.58;99314.47;128418;1090;114386;-87
2021/07/22 05:16:48;;;;;;;3.65;2.35;;;;;;;17.93;63.50;99317.08;128753;1090;22825;-87
2021/07/22 05:19:40;;;;;;;4.40;2.80;;;;;;;18.15;62.76;99320.98;128514;1090;113648;-88
2021/07/22 05:22:33;;;;;;;4.53;2.68;;;;;;;18.42;62.58;99314.52;128462;1089;23605;-88
2021/07/22 05:25:21;;;;;;;5.15;3.08;;;;;;;18.77;61.83;99323.83;128523;1088;113707;-86
2021/07/22 05:28:04;;;;;;;4.83;2.73;;;;;;;19.07;61.07;99317.48;128598;1090;24158;-85
2021/07/22 05:32:39;;;;;;;6.30;2.35;;;;;;;19.59;59.65;99315.73;125792;1092;23355;-63
2021/07/22 05:35:40;;;;;;;7.53;2.53;;;;;;;19.93;59.22;99319.66;130107;1090;23461;-64
2021/07/22 05:38:18;;;;;;;6.05;2.83;;;;;;;20.19;58.74;99326.02;129890;1093;114326;-64
2021/07/22 05:40:48;;;;;;;4.65;2.90;;;;;;;20.46;58.42;99328.47;130086;1093;23253;-65
2021/07/22 05:43:17;;;;;;;5.53;2.75;;;;;;;20.68;57.03;99316.35;129976;1093;113642;-64
2021/07/22 05:45:46;;;;;;;4.88;2.93;;;;;;;20.87;56.53;99320.70;130036;1093;22680;-65
2021/07/22 05:48:15;;;;;;;6.03;2.53;;;;;;;21.04;56.03;99320.65;130101;1093;23163;-65
2021/07/22 05:50:44;;;;;;;6.98;2.80;;;;;;;21.21;55.78;99322.56;129904;1093;113783;-63
2021/07/22 05:53:13;;;;;;;10.25;2.90;;;;;;;21.35;55.53;99325.92;130116;1093;22528;-63
2021/07/22 05:55:43;;;;;;;6.35;3.03;;;;;;;21.41;54.89;99325.38;129707;1093;113675;-63
2021/07/22 05:58:15;;;;;;;8.73;2.60;;;;;;;21.41;55.17;99319.83;129985;1093;23126;-62
2021/07/22 06:00:43;;;;;;;7.50;2.73;;;;;;;21.54;55.40;99326.28;129911;1093;113722;-62
2021/07/22 06:03:12;;;;;;;3.93;2.70;;;;;;;21.72;55.47;99324.22;129983;1092;23132;-62
2021/07/22 06:05:41;;;;;;;6.00;2.70;;;;;;;21.86;55.05;99327.55;129965;1093;22638;-62
2021/07/22 06:08:10;;;;;;;4.27;2.60;;;;;;;21.91;54.84;99324.58;129691;1093;114717;-64
2021/07/22 06:10:39;;;;;;;5.15;2.80;;;;;;;21.93;54.99;99325.03;130005;1093;22592;-65
2021/07/22 06:13:08;;;;;;;4.38;2.95;;;;;;;21.95;55.45;99333.83;129801;1093;114265;-64
2021/07/22 06:15:37;;;;;;;6.48;2.88;;;;;;;21.88;55.90;99328.02;129991;1093;22550;-65
2021/07/22 06:18:06;;;;;;;4.83;3.10;;;;;;;21.73;56.44;99326.66;129959;1093;22602;-64
2021/07/22 06:20:35;;;;;;;14.50;5.38;;;;;;;21.55;56.77;99316.00;129828;1092;114210;-64
2021/07/22 06:23:04;;;;;;;6.55;3.30;;;;;;;21.40;56.85;99318.20;129901;1092;22544;-64
2021/07/22 06:25:33;;;;;;;5.07;3.17;;;;;;;21.22;57.66;99330.52;129705;1092;115687;-64
2021/07/22 06:28:01;;;;;;;9.70;2.78;;;;;;;21.00;57.96;99339.07;129774;1093;22560;-59
2021/07/22 06:30:32;;;;;;;3.50;2.68;;;;;;;20.78;58.57;99329.02;129889;1092;22601;-59
2021/07/22 06:33:01;;;;;;;4.33;2.70;;;;;;;20.64;59.30;99333.94;129835;1093;113275;-59
2021/07/22 06:35:30;;;;;;;4.73;2.90;;;;;;;20.53;59.67;99335.44;129816;1092;22536;-62
2021/07/22 06:37:59;;;;;;;6.50;3.13;;;;;;;20.42;60.12;99337.73;129910;1092;113754;-62
2021/07/22 06:40:31;;;;;;;5.58;2.90;;;;;;;20.33;60.27;99339.68;129841;1093;23392;-62
2021/07/22 06:43:01;;;;;;;3.80;2.78;;;;;;;20.26;60.37;99345.70;129704;1093;113683;-62
2021/07/22 06:45:30;;;;;;;5.05;3.38;;;;;;;20.20;60.34;99341.45;129877;1093;22556;-62
2021/07/22 06:48:01;;;;;;;6.28;3.13;;;;;;;20.15;60.45;99338.88;129833;1093;22658;-62
2021/07/22 06:50:31;;;;;;;7.53;2.90;;;;;;;20.11;60.83;99343.42;129835;1092;113607;-62
2021/07/22 06:53:04;;;;;;;7.93;2.78;;;;;;;20.10;61.16;99345.38;129969;1092;23086;-62
2021/07/22 06:55:33;;;;;;;7.80;3.40;;;;;;;20.12;61.17;99340.33;129851;1093;113866;-62
2021/07/22 06:58:11;;;;;;;8.55;3.20;;;;;;;20.15;61.56;99344.41;129944;1093;22622;-62
2021/07/22 07:00:40;;;;;;;12.03;3.35;;;;;;;20.22;60.95;99349.43;130006;1092;22521;-62
2021/07/22 07:03:12;;;;;;;8.60;3.53;;;;;;;20.29;61.29;99347.00;129896;1093;113653;-62
2021/07/22 07:05:41;;;;;;;8.28;2.95;;;;;;;20.37;60.49;99360.85;129962;1093;22557;-62
2021/07/22 07:08:10;;;;;;;10.85;3.20;;;;;;;20.43;60.13;99351.25;129792;1092;113590;-62
2021/07/22 07:10:38;;;;;;;5.10;2.98;;;;;;;20.51;59.66;99343.25;129996;1093;22559;-62
2021/07/22 07:13:07;;;;;;;6.10;2.83;;;;;;;20.56;59.97;99348.63;129917;1092;113789;-62
2021/07/22 07:15:36;;;;;;;4.53;3.18;;;;;;;20.62;59.64;99345.38;129950;1093;22538;-62
2021/07/22 07:18:05;;;;;;;6.23;2.83;;;;;;;20.67;59.42;99350.72;129980;1093;23017;-62
2021/07/22 07:20:36;;;;;;;6.75;3.30;;;;;;;20.71;59.70;99345.34;129759;1093;113852;-62
2021/07/22 07:23:05;;;;;;;7.00;3.03;;;;;;;20.76;59.31;99345.99;129999;1093;22696;-62
2021/07/22 07:25:34;;;;;;;4.90;3.23;;;;;;;20.78;58.77;99356.71;129892;1093;113555;-62
2021/07/22 07:28:03;;;;;;;8.63;3.38;;;;;;;20.71;59.40;99345.34;129955;1093;22531;-62
2021/07/22 07:30:33;;;;;;;8.50;3.08;;;;;;;20.67;60.10;99361.79;130046;1093;22577;-62
2021/07/22 07:33:02;;;;;;;8.40;3.83;;;;;;;20.65;59.58;99353.00;129856;1093;113709;-62
2021/07/22 07:35:31;;;;;;;5.25;3.10;;;;;;;20.67;59.63;99347.13;129938;1093;22551;-62
2021/07/22 07:38:00;;;;;;;6.68;3.33;;;;;;;20.72;60.35;99350.55;129708;1093;113683;-62
2021/07/22 07:40:29;;;;;;;8.18;2.83;;;;;;;20.85;59.07;99353.45;129990;1093;22708;-62
2021/07/22 07:42:58;;;;;;;4.40;2.63;;;;;;;20.97;58.03;99354.39;129874;1093;114218;-62
2021/07/22 07:45:27;;;;;;;6.35;2.88;;;;;;;21.04;58.74;99348.34;129969;1092;22541;-62
2021/07/22 07:47:56;;;;;;;5.63;3.05;;;;;;;21.10;58.57;99355.31;129989;1093;22508;-62
2021/07/22 07:50:25;;;;;;;4.23;2.30;;;;;;;21.12;57.92;99350.27;129854;1092;113755;-62
2021/07/22 07:52:53;;;;;;;4.83;2.55;;;;;;;21.11;57.55;99348.63;130004;1093;22557;-62
2021/07/22 07:55:22;;;;;;;7.13;2.88;;;;;;;21.10;58.42;99358.90;129921;1093;113897;-62
2021/07/22 07:57:51;;;;;;;4.95;2.98;;;;;;;21.12;57.75;99356.62;129895;1093;22552;-62
2021/07/22 08:00:20;;;;;;;6.65;2.73;;;;;;;21.09;57.57;99359.23;129788;1093;22542;-63
2021/07/22 08:02:53;;;;;;;4.53;2.65;;;;;;;21.03;57.83;99353.08;129791;1092;113695;-63
2021/07/22 08:05:22;;;;;;;3.60;2.73;;;;;;;21.05;58.31;99350.80;129955;1093;23685;-62
2021/07/22 08:07:51;;;;;;;4.45;2.33;;;;;;;21.08;58.46;99349.29;129681;1093;113707;-62
2021/07/22 08:10:22;;;;;;;4.70;2.80;;;;;;;21.11;57.11;99354.17;129774;1093;23393;-62
2021/07/22 08:12:51;;;;;;;5.07;3.10;;;;;;;21.13;57.41;99357.43;129849;1092;113728;-62
2021/07/22 08:15:43;;;;;;;4.80;2.68;;;;;;;21.17;56.77;99352.86;129978;1092;22576;-63
2021/07/22 08:18:12;;;;;;;3.63;2.58;;;;;;;21.21;57.33;99348.29;129965;1092;22985;-62
2021/07/22 08:20:42;;;;;;;5.63;3.43;;;;;;;21.26;57.23;99352.84;129878;1093;113942;-64
2021/07/22 08:23:11;;;;;;;5.68;2.93;;;;;;;21.30;57.22;99349.08;129826;1092;22530;-64
2021/07/22 08:25:41;;;;;;;4.13;2.98;;;;;;;21.34;57.45;99350.05;129871;1093;113746;-64
2021/07/22 08:28:11;;;;;;;5.48;2.95;;;;;;;21.43;56.28;99350.81;129974;1093;23470;-63
2021/07/22 08:30:40;;;;;;;4.90;2.90;;;;;;;21.46;55.37;99350.15;129964;1093;22665;-64
2021/07/22 08:33:09;;;;;;;7.58;3.20;;;;;;;21.46;55.21;99344.60;129900;1093;113456;-63
2021/07/22 08:35:37;;;;;;;6.40;2.85;;;;;;;21.46;54.55;99343.79;130001;1093;22659;-63
2021/07/22 08:38:11;;;;;;;3.60;2.55;;;;;;;21.45;52.23;99348.52;129904;1093;114069;-65
2021/07/22 08:40:41;;;;;;;6.30;3.23;;;;;;;21.44;53.05;99341.34;129754;1093;23279;-60
2021/07/22 08:43:10;;;;;;;4.15;2.73;;;;;;;21.45;53.35;99351.30;129897;1093;113883;-61
2021/07/22 08:45:39;;;;;;;5.98;2.90;;;;;;;21.52;53.33;99348.79;129989;1092;22663;-61
2021/07/22 08:48:08;;;;;;;3.75;2.60;;;;;;;21.60;52.91;99338.81;129812;1092;23110;-61
2021/07/22 08:50:37;;;;;;;5.53;2.83;;;;;;;21.65;52.13;99349.69;129742;1093;113974;-60
2021/07/22 08:53:06;;;;;;;2.80;2.43;;;;;;;21.60;51.18;99347.13;129855;1091;22569;-60
2021/07/22 08:55:35;;;;;;;10.45;3.75;;;;;;;21.53;51.85;99349.60;129678;1093;113739;-61
2021/07/22 08:58:04;;;;;;;4.23;2.60;;;;;;;21.50;52.59;99345.53;129792;1093;22561;-60
2021/07/22 09:00:33;;;;;;;5.65;2.60;;;;;;;21.51;52.94;99349.94;129809;1093;22565;-60
2021/07/22 09:03:02;;;;;;;3.68;2.68;;;;;;;21.57;51.67;99360.84;129712;1093;113476;-61
2021/07/22 09:05:34;;;;;;;4.20;2.63;;;;;;;21.63;51.47;99354.79;129783;1093;22531;-60
2021/07/22 09:08:07;;;;;;;4.55;2.90;;;;;;;21.72;50.90;99360.27;129823;1093;113597;-60
2021/07/22 09:10:36;;;;;;;2.95;2.38;;;;;;;21.76;50.74;99362.05;129968;1093;23334;-60
2021/07/22 09:13:05;;;;;;;3.35;2.40;;;;;;;21.81;50.07;99353.50;129872;1092;113683;-61
2021/07/22 09:15:35;;;;;;;3.68;2.20;;;;;;;21.82;50.43;99346.00;129822;1092;22589;-61
2021/07/22 09:18:23;;;;;;;5.85;2.60;;;;;;;21.85;50.49;99351.70;129794;1093;22664;-61
2021/07/22 09:20:53;;;;;;;3.90;2.40;;;;;;;21.93;50.01;99350.00;129895;1092;114095;-61
2021/07/22 09:23:26;;;;;;;4.58;2.85;;;;;;;22.00;49.93;99355.05;130025;1093;22538;-62
2021/07/22 09:25:55;;;;;;;2.35;2.13;;;;;;;22.03;48.48;99357.16;129727;1092;113560;-61
2021/07/22 09:28:25;;;;;;;3.38;2.75;;;;;;;22.08;48.14;99352.20;129965;1093;22619;-61
2021/07/22 09:31:01;;;;;;;4.48;2.40;;;;;;;22.06;47.64;99356.48;129716;1093;113770;-60
2021/07/22 09:33:42;;;;;;;3.00;2.45;;;;;;;22.02;47.95;99353.56;130014;1093;22559;-61
2021/07/22 09:36:34;;;;;;;4.33;2.80;;;;;;;22.06;48.48;99360.08;130003;1092;23046;-61
2021/07/22 09:39:28;;;;;;;3.38;2.40;;;;;;;22.14;48.05;99370.28;129662;1093;113441;-54
2021/07/22 09:42:06;;;;;;;5.53;2.55;;;;;;;22.16;47.48;99365.21;129906;1092;22557;-66
2021/07/22 09:44:39;;;;;;;5.35;2.33;;;;;;;22.11;47.09;99365.41;129704;1093;113764;-65
2021/07/22 09:47:10;;;;;;;3.03;2.20;;;;;;;22.10;46.86;99365.73;129974;1092;24295;-66
2021/07/22 09:49:41;;;;;;;2.35;1.98;;;;;;;22.06;45.71;99360.08;129928;1092;113766;-65
2021/07/22 09:52:16;;;;;;;2.90;2.00;;;;;;;22.01;46.46;99354.72;129934;1092;23151;-66
2021/07/22 09:54:45;;;;;;;4.65;2.20;;;;;;;22.09;45.20;99362.15;129993;1092;22646;-68
2021/07/22 09:57:21;;;;;;;8.68;2.40;;;;;;;22.18;43.54;99364.88;129696;1093;113669;-67
2021/07/22 09:59:51;;;;;;;3.40;2.20;;;;;;;22.25;43.56;99381.78;130026;1092;22574;-65
2021/07/22 10:02:22;;;;;;;5.00;2.28;;;;;;;22.23;43.37;99362.69;129746;1092;115280;-65
2021/07/22 10:04:52;;;;;;;3.43;2.03;;;;;;;22.26;43.21;99355.66;129931;1092;22626;-65
2021/07/22 10:07:22;;;;;;;6.10;2.10;;;;;;;22.29;43.11;99365.27;129690;1093;114382;-64
2021/07/22 10:09:53;;;;;;;5.80;2.38;;;;;;;22.32;43.63;99353.49;130014;1093;22673;-65
2021/07/22 10:12:22;;;;;;;3.80;2.10;;;;;;;22.41;42.55;99356.99;129825;1092;22510;-65
2021/07/22 10:14:55;;;;;;;5.93;2.05;;;;;;;22.47;40.88;99361.20;129864;1093;114871;-65
2021/07/22 10:17:31;;;;;;;6.88;2.68;;;;;;;22.52;40.95;99355.41;130002;1093;23237;-64
2021/07/22 10:20:03;;;;;;;5.00;2.20;;;;;;;22.54;41.76;99350.33;129734;1092;113599;-63
2021/07/22 10:22:32;;;;;;;3.38;1.90;;;;;;;22.61;39.94;99360.91;129847;1092;22608;-64
2021/07/22 10:25:24;;;;;;;6.30;2.03;;;;;;;22.57;41.07;99360.77;130077;1093;22530;-65
2021/07/22 10:28:11;;;;;;;3.88;2.10;;;;;;;22.58;41.59;99354.06;130093;1093;22521;-63
2021/07/22 10:30:59;;;;;;;2.50;1.88;;;;;;;22.57;41.69;99355.21;129928;1093;22594;-67
2021/07/22 10:33:48;;;;;;;5.48;2.70;;;;;;;22.58;42.54;99348.51;129840;1091;22563;-64
2021/07/22 10:36:17;;;;;;;6.30;2.30;;;;;;;22.61;44.32;99350.61;129839;1092;22558;-66
2021/07/22 10:38:47;;;;;;;6.98;2.20;;;;;;;22.66;44.00;99347.59;129694;1092;114394;-64
2021/07/22 10:41:40;;;;;;;5.80;2.45;;;;;;;22.76;43.87;99355.55;130003;1093;22645;-61
2021/07/22 10:44:14;;;;;;;4.23;2.20;;;;;;;22.79;42.97;99352.09;129943;1093;114464;-60
2021/07/22 10:46:54;;;;;;;5.45;2.35;;;;;;;22.82;43.83;99354.16;130020;1093;22769;-60
2021/07/22 10:49:40;;;;;;;5.33;2.78;;;;;;;22.87;42.69;99355.92;130029;1092;23102;-59
2021/07/22 10:52:11;;;;;;;5.20;2.20;;;;;;;22.87;43.14;99358.70;129956;1093;114040;-63
2021/07/22 10:54:40;;;;;;;6.15;2.25;;;;;;;22.86;43.74;99355.10;129971;1093;22703;-60
2021/07/22 10:57:33;;;;;;;5.65;2.00;;;;;;;22.87;44.56;99350.36;129903;1092;114030;-60
2021/07/22 11:00:09;;;;;;;2.43;1.90;;;;;;;22.91;43.87;99348.52;129977;1092;23308;-60
2021/07/22 11:02:42;;;;;;;4.50;2.10;;;;;;;22.92;43.28;99350.16;129735;1093;114301;-60
2021/07/22 11:05:40;;;;;;;4.83;2.30;;;;;;;22.84;43.37;99343.52;129788;1092;22546;-61
2021/07/22 11:08:21;;;;;;;5.50;2.50;;;;;;;22.79;43.71;99349.31;129657;1092;114445;-61
2021/07/22 11:11:07;;;;;;;4.78;2.45;;;;;;;22.80;44.65;99350.09;129791;1093;22574;-61
2021/07/22 11:13:37;;;;;;;4.60;2.35;;;;;;;22.87;44.04;99347.58;129775;1092;22543;-61
2021/07/22 11:16:22;;;;;;;2.78;2.03;;;;;;;22.91;43.40;99354.08;129701;1093;113534;-60
2021/07/22 11:18:53;;;;;;;3.48;2.00;;;;;;;22.84;43.76;99346.30;129739;1093;22705;-60
2021/07/22 11:21:23;;;;;;;5.80;2.30;;;;;;;22.82;44.38;99362.49;129724;1093;113886;-60
2021/07/22 11:23:56;;;;;;;8.25;2.40;;;;;;;22.88;43.68;99357.55;129806;1093;22528;-59
2021/07/22 11:26:50;;;;;;;9.75;2.28;;;;;;;22.90;44.57;99349.68;129698;1092;114605;-60
2021/07/22 11:29:21;;;;;;;3.15;2.15;;;;;;;22.93;43.61;99357.33;129812;1092;22564;-60
2021/07/22 11:31:51;;;;;;;4.95;2.15;;;;;;;22.93;44.81;99354.55;129701;1091;113968;-60
2021/07/22 11:34:41;;;;;;;6.50;2.05;;;;;;;22.98;43.80;99351.53;129871;1093;23776;-59
2021/07/22 11:37:10;;;;;;;8.80;2.35;;;;;;;23.01;44.02;99358.38;129790;1093;22570;-62
2021/07/22 11:39:41;;;;;;;3.38;2.20;;;;;;;23.04;43.96;99358.50;129666;1093;114620;-65
2021/07/22 11:42:14;;;;;;;3.00;1.93;;;;;;;23.04;43.23;99349.36;129837;1093;23613;-66
2021/07/22 11:45:06;;;;;;;4.73;2.03;;;;;;;23.01;43.61;99361.16;129748;1093;113637;-64
2021/07/22 11:47:35;;;;;;;9.38;2.83;;;;;;;22.96;43.20;99359.40;129873;1092;23786;-64
2021/07/22 11:50:04;;;;;;;8.05;2.50;;;;;;;22.91;42.82;99349.34;129662;1093;114244;-64
2021/07/22 11:52:35;;;;;;;4.43;2.00;;;;;;;22.87;42.45;99376.17;129817;1093;22566;-64
2021/07/22 11:55:11;;;;;;;3.40;1.88;;;;;;;22.82;42.55;99353.34;129777;1093;22573;-65
2021/07/22 11:57:43;;;;;;;3.83;2.13;;;;;;;22.79;43.65;99352.09;129723;1093;113098;-64